Pagrindinis puslapis
METAR-TAF:

METAR-TAF

Oro uostai :

Wink, Teksasas, Jungtinės Amerikos Valstijos

platuma: 31-46-47N, ilguma: 103-12-05W, Aukštis: 860 m

Dabartinis oras

Ataskaita buvo paskelbta 24 minutes, ne 10:53 UTC
Vėjas 7 kt iš Šiaurės
Temperatūra 6°C
Drėgmė 36%
Slėgis 1019 hPa
Matomumas: 16.1 km
Giedras dangus

METAR: KINK 281053Z AUTO 36007KT 10SM CLR 06/M08 A3010 RMK AO2 SLP169 T00561083 $

Laikas: 06:17 (11:17 UTC)

Prognozė

Ataskaita buvo paskelbta 5 valandos ir 57 minutes, ne 05:20 UTC
Prognozė galioja nuo 28 metu 06 UTC su 29 metu 06 UTC
Vėjas 6 kt iš Šiaurės/Šiaurės Vakarų
Matomumas: 10 km
Giedras dangus

TAF: KINK 280520Z 2806/2906 33006KT P6SM SKC

Orai ataskaitas ir orų prognozės (METAR, TAF).

turimą stotys yra geltonos ir raudonos taškus žemėlapyje.

Perkelti pele per norėdami pamatyti stoties vardą.

Tada spustelėkite, norėdami matyti oro stebėjimo ir prognozės.

Norėdami pakeisti žemėlapį: spustelėkite ant žalios mygtukų su juodo kryžiaus žemyn,; žalią mygtuką su brūkšneliu, jei norite nutolinti; arba žalių rodyklių gretimoms žemėlapius.


METAR-TAF: